sensor_id;sensor_type;location;lat;lon;timestamp;pressure;altitude;pressure_sealevel;temperature;humidity
26807;BME280;14380;49.910;6.792;2023-07-16T00:00:39;98457.50;;;19.43;100.00
26807;BME280;14380;49.910;6.792;2023-07-16T00:03:06;98462.56;;;19.46;100.00
26807;BME280;14380;49.910;6.792;2023-07-16T00:05:36;98457.22;;;19.74;100.00
26807;BME280;14380;49.910;6.792;2023-07-16T00:08:03;98461.44;;;19.95;100.00
26807;BME280;14380;49.910;6.792;2023-07-16T00:10:30;98466.81;;;19.95;100.00
26807;BME280;14380;49.910;6.792;2023-07-16T00:12:59;98469.78;;;19.92;100.00
26807;BME280;14380;49.910;6.792;2023-07-16T00:15:26;98465.44;;;20.09;100.00
26807;BME280;14380;49.910;6.792;2023-07-16T00:17:53;98468.38;;;19.98;100.00
26807;BME280;14380;49.910;6.792;2023-07-16T00:20:20;98465.31;;;19.65;100.00
26807;BME280;14380;49.910;6.792;2023-07-16T00:22:50;98455.63;;;19.82;100.00
26807;BME280;14380;49.910;6.792;2023-07-16T00:25:17;98455.97;;;19.97;100.00
26807;BME280;14380;49.910;6.792;2023-07-16T00:27:44;98448.09;;;19.85;100.00
26807;BME280;14380;49.910;6.792;2023-07-16T00:30:11;98450.91;;;19.94;100.00
26807;BME280;14380;49.910;6.792;2023-07-16T00:32:38;98448.81;;;20.05;100.00
26807;BME280;14380;49.910;6.792;2023-07-16T00:35:05;98467.75;;;19.76;100.00
26807;BME280;14380;49.910;6.792;2023-07-16T00:37:33;98464.59;;;19.90;100.00
26807;BME280;14380;49.910;6.792;2023-07-16T00:40:02;98457.25;;;19.93;100.00
26807;BME280;14380;49.910;6.792;2023-07-16T00:42:29;98457.91;;;19.76;100.00
26807;BME280;14380;49.910;6.792;2023-07-16T00:44:56;98468.47;;;19.78;100.00
26807;BME280;14380;49.910;6.792;2023-07-16T00:47:22;98463.03;;;19.88;100.00
26807;BME280;14380;49.910;6.792;2023-07-16T00:49:50;98458.25;;;19.91;100.00
26807;BME280;14380;49.910;6.792;2023-07-16T00:52:18;98461.09;;;20.08;100.00
26807;BME280;14380;49.910;6.792;2023-07-16T00:54:45;98467.66;;;19.68;100.00
26807;BME280;14380;49.910;6.792;2023-07-16T00:57:14;98468.00;;;19.65;100.00
26807;BME280;14380;49.910;6.792;2023-07-16T00:59:40;98476.31;;;19.61;100.00
26807;BME280;14380;49.910;6.792;2023-07-16T01:02:07;98476.66;;;19.76;100.00
26807;BME280;14380;49.910;6.792;2023-07-16T01:04:34;98482.63;;;19.70;100.00
26807;BME280;14380;49.910;6.792;2023-07-16T01:07:04;98480.75;;;19.71;100.00
26807;BME280;14380;49.910;6.792;2023-07-16T01:09:33;98479.59;;;19.55;100.00
26807;BME280;14380;49.910;6.792;2023-07-16T01:12:03;98482.75;;;19.69;100.00
26807;BME280;14380;49.910;6.792;2023-07-16T01:14:33;98490.09;;;19.67;100.00
26807;BME280;14380;49.910;6.792;2023-07-16T01:17:02;98489.47;;;19.55;100.00
26807;BME280;14380;49.910;6.792;2023-07-16T01:19:29;98496.03;;;19.32;100.00
26807;BME280;14380;49.910;6.792;2023-07-16T01:22:04;98501.09;;;19.36;100.00
26807;BME280;14380;49.910;6.792;2023-07-16T01:27:50;98497.91;;;19.32;100.00
26807;BME280;14380;49.910;6.792;2023-07-16T01:30:26;98497.72;;;19.34;100.00
26807;BME280;14380;49.910;6.792;2023-07-16T01:32:55;98504.00;;;19.52;100.00
26807;BME280;14380;49.910;6.792;2023-07-16T01:35:22;98501.44;;;19.60;100.00
26807;BME280;14380;49.910;6.792;2023-07-16T01:37:49;98506.56;;;19.44;100.00
26807;BME280;14380;49.910;6.792;2023-07-16T01:40:15;98507.06;;;19.57;100.00
26807;BME280;14380;49.910;6.792;2023-07-16T01:42:42;98504.00;;;19.14;100.00
26807;BME280;14380;49.910;6.792;2023-07-16T01:45:09;98505.47;;;19.37;100.00
26807;BME280;14380;49.910;6.792;2023-07-16T01:47:40;98502.09;;;19.35;100.00
26807;BME280;14380;49.910;6.792;2023-07-16T01:50:11;98500.69;;;19.30;100.00
26807;BME280;14380;49.910;6.792;2023-07-16T01:52:38;98512.84;;;19.53;100.00
26807;BME280;14380;49.910;6.792;2023-07-16T01:55:05;98516.22;;;19.27;100.00
26807;BME280;14380;49.910;6.792;2023-07-16T01:57:32;98514.78;;;19.32;100.00
26807;BME280;14380;49.910;6.792;2023-07-16T01:59:58;98512.06;;;19.05;100.00
26807;BME280;14380;49.910;6.792;2023-07-16T02:02:25;98522.53;;;19.36;100.00
26807;BME280;14380;49.910;6.792;2023-07-16T02:04:53;98520.63;;;19.08;100.00
26807;BME280;14380;49.910;6.792;2023-07-16T02:07:19;98511.38;;;19.02;100.00
26807;BME280;14380;49.910;6.792;2023-07-16T02:09:46;98525.38;;;19.24;100.00
26807;BME280;14380;49.910;6.792;2023-07-16T02:12:12;98526.72;;;19.48;100.00
26807;BME280;14380;49.910;6.792;2023-07-16T02:14:39;98530.72;;;19.24;100.00
26807;BME280;14380;49.910;6.792;2023-07-16T02:17:05;98528.00;;;18.86;100.00
26807;BME280;14380;49.910;6.792;2023-07-16T02:19:32;98533.59;;;19.03;100.00
26807;BME280;14380;49.910;6.792;2023-07-16T02:22:00;98535.88;;;18.78;100.00
26807;BME280;14380;49.910;6.792;2023-07-16T02:24:27;98525.31;;;18.96;100.00
26807;BME280;14380;49.910;6.792;2023-07-16T02:26:53;98530.53;;;18.78;100.00
26807;BME280;14380;49.910;6.792;2023-07-16T02:29:20;98528.81;;;18.87;100.00
26807;BME280;14380;49.910;6.792;2023-07-16T02:31:46;98543.06;;;18.78;100.00
26807;BME280;14380;49.910;6.792;2023-07-16T02:34:13;98540.41;;;18.68;100.00
26807;BME280;14380;49.910;6.792;2023-07-16T02:36:40;98546.59;;;18.58;100.00
26807;BME280;14380;49.910;6.792;2023-07-16T02:39:08;98548.28;;;18.50;100.00
26807;BME280;14380;49.910;6.792;2023-07-16T02:41:35;98543.50;;;18.63;100.00
26807;BME280;14380;49.910;6.792;2023-07-16T02:44:04;98553.09;;;18.56;100.00
26807;BME280;14380;49.910;6.792;2023-07-16T02:46:31;98558.00;;;18.51;100.00
26807;BME280;14380;49.910;6.792;2023-07-16T02:48:57;98562.06;;;18.35;100.00
26807;BME280;14380;49.910;6.792;2023-07-16T02:51:24;98559.66;;;18.22;100.00
26807;BME280;14380;49.910;6.792;2023-07-16T02:53:51;98568.56;;;18.42;100.00
26807;BME280;14380;49.910;6.792;2023-07-16T02:56:19;98571.22;;;18.42;100.00
26807;BME280;14380;49.910;6.792;2023-07-16T02:58:45;98576.69;;;18.21;100.00
26807;BME280;14380;49.910;6.792;2023-07-16T03:01:12;98574.06;;;18.31;100.00
26807;BME280;14380;49.910;6.792;2023-07-16T03:03:38;98580.66;;;18.27;100.00
26807;BME280;14380;49.910;6.792;2023-07-16T03:06:05;98576.94;;;18.08;100.00
26807;BME280;14380;49.910;6.792;2023-07-16T03:08:31;98575.16;;;18.09;100.00
26807;BME280;14380;49.910;6.792;2023-07-16T03:10:58;98569.22;;;18.05;100.00
26807;BME280;14380;49.910;6.792;2023-07-16T03:13:26;98571.13;;;17.93;100.00
26807;BME280;14380;49.910;6.792;2023-07-16T03:15:53;98572.59;;;18.07;100.00
26807;BME280;14380;49.910;6.792;2023-07-16T03:18:20;98577.22;;;18.05;100.00
26807;BME280;14380;49.910;6.792;2023-07-16T03:20:46;98579.78;;;18.07;100.00
26807;BME280;14380;49.910;6.792;2023-07-16T03:23:13;98577.50;;;18.12;100.00
26807;BME280;14380;49.910;6.792;2023-07-16T03:25:39;98584.44;;;18.24;100.00
26807;BME280;14380;49.910;6.792;2023-07-16T03:28:06;98584.97;;;18.18;100.00
26807;BME280;14380;49.910;6.792;2023-07-16T03:30:34;98586.88;;;17.96;100.00
26807;BME280;14380;49.910;6.792;2023-07-16T03:33:02;98587.94;;;18.15;100.00
26807;BME280;14380;49.910;6.792;2023-07-16T03:35:30;98587.22;;;18.13;100.00
26807;BME280;14380;49.910;6.792;2023-07-16T03:37:56;98590.38;;;17.97;100.00
26807;BME280;14380;49.910;6.792;2023-07-16T03:40:25;98590.88;;;18.12;100.00
26807;BME280;14380;49.910;6.792;2023-07-16T03:42:52;98600.38;;;17.95;100.00
26807;BME280;14380;49.910;6.792;2023-07-16T03:45:19;98601.28;;;18.05;100.00
26807;BME280;14380;49.910;6.792;2023-07-16T03:47:47;98612.69;;;17.76;100.00
26807;BME280;14380;49.910;6.792;2023-07-16T03:50:14;98613.72;;;18.26;100.00
26807;BME280;14380;49.910;6.792;2023-07-16T03:52:40;98610.19;;;17.84;100.00
26807;BME280;14380;49.910;6.792;2023-07-16T03:55:07;98614.84;;;17.92;100.00
26807;BME280;14380;49.910;6.792;2023-07-16T03:57:34;98608.06;;;17.78;100.00
26807;BME280;14380;49.910;6.792;2023-07-16T04:00:01;98613.66;;;18.06;100.00
26807;BME280;14380;49.910;6.792;2023-07-16T04:02:29;98614.56;;;17.95;100.00
26807;BME280;14380;49.910;6.792;2023-07-16T04:04:57;98617.31;;;18.05;100.00
26807;BME280;14380;49.910;6.792;2023-07-16T04:07:23;98607.38;;;17.86;100.00
26807;BME280;14380;49.910;6.792;2023-07-16T04:09:51;98622.81;;;18.13;100.00
26807;BME280;14380;49.910;6.792;2023-07-16T04:12:17;98617.91;;;18.28;100.00
26807;BME280;14380;49.910;6.792;2023-07-16T04:14:44;98623.97;;;18.21;100.00
26807;BME280;14380;49.910;6.792;2023-07-16T04:17:10;98626.41;;;18.53;100.00
26807;BME280;14380;49.910;6.792;2023-07-16T04:19:37;98625.72;;;18.91;100.00
26807;BME280;14380;49.910;6.792;2023-07-16T04:22:06;98619.94;;;19.05;100.00
26807;BME280;14380;49.910;6.792;2023-07-16T04:24:32;98623.47;;;19.06;100.00
26807;BME280;14380;49.910;6.792;2023-07-16T04:26:59;98622.44;;;19.36;100.00
26807;BME280;14380;49.910;6.792;2023-07-16T04:29:25;98626.97;;;19.26;100.00
26807;BME280;14380;49.910;6.792;2023-07-16T04:31:52;98625.13;;;19.36;100.00
26807;BME280;14380;49.910;6.792;2023-07-16T04:34:19;98632.13;;;19.47;100.00
26807;BME280;14380;49.910;6.792;2023-07-16T04:36:45;98637.94;;;19.32;100.00
26807;BME280;14380;49.910;6.792;2023-07-16T04:39:13;98632.13;;;19.47;100.00
26807;BME280;14380;49.910;6.792;2023-07-16T04:41:39;98634.94;;;19.45;100.00
26807;BME280;14380;49.910;6.792;2023-07-16T04:44:06;98649.03;;;19.47;100.00
26807;BME280;14380;49.910;6.792;2023-07-16T04:46:33;98641.06;;;19.75;99.26
26807;BME280;14380;49.910;6.792;2023-07-16T04:49:00;98650.13;;;19.65;100.00
26807;BME280;14380;49.910;6.792;2023-07-16T04:51:27;98654.56;;;19.36;100.00
26807;BME280;14380;49.910;6.792;2023-07-16T04:53:53;98655.25;;;19.48;100.00
26807;BME280;14380;49.910;6.792;2023-07-16T04:56:22;98662.31;;;19.39;100.00
26807;BME280;14380;49.910;6.792;2023-07-16T04:58:48;98666.44;;;19.14;100.00
26807;BME280;14380;49.910;6.792;2023-07-16T05:01:15;98671.22;;;19.00;100.00
26807;BME280;14380;49.910;6.792;2023-07-16T05:03:41;98684.97;;;18.86;100.00
26807;BME280;14380;49.910;6.792;2023-07-16T05:06:09;98677.66;;;19.27;100.00
26807;BME280;14380;49.910;6.792;2023-07-16T05:08:35;98690.16;;;18.58;100.00
26807;BME280;14380;49.910;6.792;2023-07-16T05:11:02;98697.41;;;19.07;100.00
26807;BME280;14380;49.910;6.792;2023-07-16T05:13:30;98693.34;;;19.02;100.00
26807;BME280;14380;49.910;6.792;2023-07-16T05:15:57;98697.94;;;18.91;100.00
26807;BME280;14380;49.910;6.792;2023-07-16T05:18:23;98692.56;;;18.81;100.00
26807;BME280;14380;49.910;6.792;2023-07-16T05:20:50;98698.66;;;19.12;100.00
26807;BME280;14380;49.910;6.792;2023-07-16T05:23:17;98692.72;;;20.05;99.34
26807;BME280;14380;49.910;6.792;2023-07-16T05:25:46;98686.88;;;20.48;95.62
26807;BME280;14380;49.910;6.792;2023-07-16T05:28:13;98697.56;;;20.02;97.87
26807;BME280;14380;49.910;6.792;2023-07-16T05:30:41;98691.59;;;20.36;97.27
26807;BME280;14380;49.910;6.792;2023-07-16T05:33:08;98698.66;;;20.83;93.57
26807;BME280;14380;49.910;6.792;2023-07-16T05:35:35;98708.44;;;20.56;93.09
26807;BME280;14380;49.910;6.792;2023-07-16T05:38:02;98704.59;;;19.93;98.68
26807;BME280;14380;49.910;6.792;2023-07-16T05:40:28;98709.13;;;20.58;95.67
26807;BME280;14380;49.910;6.792;2023-07-16T05:42:55;98713.06;;;20.82;92.80
26807;BME280;14380;49.910;6.792;2023-07-16T05:45:22;98721.38;;;20.89;92.79
26807;BME280;14380;49.910;6.792;2023-07-16T05:47:50;98719.34;;;21.63;89.73
26807;BME280;14380;49.910;6.792;2023-07-16T05:50:17;98718.50;;;20.72;89.55
26807;BME280;14380;49.910;6.792;2023-07-16T05:52:43;98723.69;;;21.20;87.53
26807;BME280;14380;49.910;6.792;2023-07-16T05:55:10;98714.66;;;20.75;90.44
26807;BME280;14380;49.910;6.792;2023-07-16T05:57:37;98724.97;;;20.79;91.57
26807;BME280;14380;49.910;6.792;2023-07-16T06:00:05;98726.53;;;20.16;91.47
26807;BME280;14380;49.910;6.792;2023-07-16T06:02:32;98726.81;;;20.23;93.03
26807;BME280;14380;49.910;6.792;2023-07-16T06:05:00;98717.50;;;20.17;90.26
26807;BME280;14380;49.910;6.792;2023-07-16T06:07:26;98727.19;;;20.84;90.83
26807;BME280;14380;49.910;6.792;2023-07-16T06:09:53;98722.00;;;21.01;88.03
26807;BME280;14380;49.910;6.792;2023-07-16T06:12:19;98720.16;;;21.82;87.02
26807;BME280;14380;49.910;6.792;2023-07-16T06:14:46;98724.06;;;20.61;87.87
26807;BME280;14380;49.910;6.792;2023-07-16T06:17:13;98720.28;;;21.36;84.63
26807;BME280;14380;49.910;6.792;2023-07-16T06:19:39;98721.88;;;21.47;84.93
26807;BME280;14380;49.910;6.792;2023-07-16T06:22:07;98723.56;;;21.48;83.91
26807;BME280;14380;49.910;6.792;2023-07-16T06:24:34;98735.72;;;21.16;83.07
26807;BME280;14380;49.910;6.792;2023-07-16T06:27:01;98737.16;;;20.64;85.61
26807;BME280;14380;49.910;6.792;2023-07-16T06:29:28;98724.41;;;20.20;84.95
26807;BME280;14380;49.910;6.792;2023-07-16T06:31:56;98728.56;;;20.88;83.62
26807;BME280;14380;49.910;6.792;2023-07-16T06:34:23;98744.25;;;20.93;83.62
26807;BME280;14380;49.910;6.792;2023-07-16T06:36:49;98729.75;;;21.84;81.06
26807;BME280;14380;49.910;6.792;2023-07-16T06:39:17;98743.13;;;21.58;82.00
26807;BME280;14380;49.910;6.792;2023-07-16T06:41:44;98737.16;;;21.64;80.84
26807;BME280;14380;49.910;6.792;2023-07-16T06:44:11;98748.75;;;21.65;78.62
26807;BME280;14380;49.910;6.792;2023-07-16T06:46:37;98748.75;;;21.10;81.32
26807;BME280;14380;49.910;6.792;2023-07-16T06:49:05;98745.91;;;21.66;78.76
26807;BME280;14380;49.910;6.792;2023-07-16T06:51:31;98752.28;;;21.65;78.83
26807;BME280;14380;49.910;6.792;2023-07-16T06:53:58;98758.41;;;21.21;79.16
26807;BME280;14380;49.910;6.792;2023-07-16T06:56:26;98760.72;;;20.42;80.34
26807;BME280;14380;49.910;6.792;2023-07-16T06:58:53;98758.44;;;20.10;82.00
26807;BME280;14380;49.910;6.792;2023-07-16T07:01:19;98745.50;;;20.61;79.71
26807;BME280;14380;49.910;6.792;2023-07-16T07:03:46;98756.75;;;20.09;79.92
26807;BME280;14380;49.910;6.792;2023-07-16T07:06:12;98758.34;;;20.67;80.55
26807;BME280;14380;49.910;6.792;2023-07-16T07:08:39;98751.72;;;20.89;79.21
26807;BME280;14380;49.910;6.792;2023-07-16T07:11:05;98753.06;;;20.75;75.93
26807;BME280;14380;49.910;6.792;2023-07-16T07:13:33;98765.34;;;21.24;76.02
26807;BME280;14380;49.910;6.792;2023-07-16T07:16:00;98760.25;;;21.39;74.76
26807;BME280;14380;49.910;6.792;2023-07-16T07:18:27;98768.81;;;21.34;74.81
26807;BME280;14380;49.910;6.792;2023-07-16T07:20:53;98761.34;;;20.92;74.19
26807;BME280;14380;49.910;6.792;2023-07-16T07:23:20;98759.34;;;20.94;75.49
26807;BME280;14380;49.910;6.792;2023-07-16T07:25:48;98765.47;;;21.59;73.64
26807;BME280;14380;49.910;6.792;2023-07-16T07:28:16;98760.63;;;22.07;71.85
26807;BME280;14380;49.910;6.792;2023-07-16T07:30:45;98747.50;;;22.73;70.96
26807;BME280;14380;49.910;6.792;2023-07-16T07:33:11;98757.16;;;22.49;71.44
26807;BME280;14380;49.910;6.792;2023-07-16T07:35:38;98756.78;;;22.79;70.15
26807;BME280;14380;49.910;6.792;2023-07-16T07:38:04;98751.72;;;22.41;68.20
26807;BME280;14380;49.910;6.792;2023-07-16T07:40:31;98758.53;;;22.27;67.91
26807;BME280;14380;49.910;6.792;2023-07-16T07:42:58;98756.19;;;22.58;67.99
26807;BME280;14380;49.910;6.792;2023-07-16T07:45:25;98760.31;;;22.10;68.25
26807;BME280;14380;49.910;6.792;2023-07-16T07:47:53;98763.31;;;21.80;70.11
26807;BME280;14380;49.910;6.792;2023-07-16T07:50:20;98754.13;;;21.91;68.95
26807;BME280;14380;49.910;6.792;2023-07-16T07:52:46;98756.25;;;22.40;70.75
26807;BME280;14380;49.910;6.792;2023-07-16T07:55:13;98764.31;;;23.59;69.94
26807;BME280;14380;49.910;6.792;2023-07-16T07:57:40;98751.03;;;22.73;68.90
26807;BME280;14380;49.910;6.792;2023-07-16T08:00:07;98755.44;;;22.83;68.22
26807;BME280;14380;49.910;6.792;2023-07-16T08:02:36;98757.25;;;22.74;68.27
26807;BME280;14380;49.910;6.792;2023-07-16T08:05:05;98770.50;;;21.98;67.86
26807;BME280;14380;49.910;6.792;2023-07-16T08:07:32;98759.91;;;22.57;67.45
26807;BME280;14380;49.910;6.792;2023-07-16T08:09:59;98770.53;;;22.41;67.19
26807;BME280;14380;49.910;6.792;2023-07-16T08:12:25;98770.88;;;21.41;68.63
26807;BME280;14380;49.910;6.792;2023-07-16T08:14:52;98781.75;;;21.75;69.02
26807;BME280;14380;49.910;6.792;2023-07-16T08:17:19;98772.53;;;21.42;70.44
26807;BME280;14380;49.910;6.792;2023-07-16T08:19:45;98778.16;;;21.66;69.51
26807;BME280;14380;49.910;6.792;2023-07-16T08:22:13;98772.69;;;21.76;71.46
26807;BME280;14380;49.910;6.792;2023-07-16T08:24:40;98774.25;;;22.13;69.51
26807;BME280;14380;49.910;6.792;2023-07-16T08:27:07;98772.38;;;22.06;71.06
26807;BME280;14380;49.910;6.792;2023-07-16T08:29:35;98773.34;;;22.57;70.08
26807;BME280;14380;49.910;6.792;2023-07-16T08:32:02;98761.72;;;22.49;70.45
26807;BME280;14380;49.910;6.792;2023-07-16T08:34:28;98764.47;;;22.65;69.23
26807;BME280;14380;49.910;6.792;2023-07-16T08:36:55;98770.88;;;23.65;65.76
26807;BME280;14380;49.910;6.792;2023-07-16T08:39:23;98759.06;;;23.74;67.07
26807;BME280;14380;49.910;6.792;2023-07-16T08:41:50;98764.59;;;24.23;65.07
26807;BME280;14380;49.910;6.792;2023-07-16T08:44:17;98767.66;;;23.53;65.85
26807;BME280;14380;49.910;6.792;2023-07-16T08:46:44;98767.66;;;24.11;66.72
26807;BME280;14380;49.910;6.792;2023-07-16T08:49:12;98768.81;;;24.09;65.97
26807;BME280;14380;49.910;6.792;2023-07-16T08:51:39;98777.47;;;23.38;65.58
26807;BME280;14380;49.910;6.792;2023-07-16T08:54:06;98780.28;;;23.28;66.91
26807;BME280;14380;49.910;6.792;2023-07-16T08:56:34;98788.28;;;22.95;66.45
26807;BME280;14380;49.910;6.792;2023-07-16T08:59:01;98789.75;;;23.49;66.84
26807;BME280;14380;49.910;6.792;2023-07-16T09:01:28;98783.22;;;22.92;64.92
26807;BME280;14380;49.910;6.792;2023-07-16T09:03:55;98792.91;;;22.76;66.66
26807;BME280;14380;49.910;6.792;2023-07-16T09:06:23;98803.34;;;22.79;67.29
26807;BME280;14380;49.910;6.792;2023-07-16T09:08:50;98804.53;;;22.16;67.00
26807;BME280;14380;49.910;6.792;2023-07-16T09:11:17;98806.06;;;22.18;66.48
26807;BME280;14380;49.910;6.792;2023-07-16T09:13:48;98804.97;;;22.03;66.52
26807;BME280;14380;49.910;6.792;2023-07-16T09:16:17;98810.00;;;21.79;67.60
26807;BME280;14380;49.910;6.792;2023-07-16T09:18:46;98804.22;;;21.56;67.63
26807;BME280;14380;49.910;6.792;2023-07-16T09:21:13;98816.09;;;21.63;68.05
26807;BME280;14380;49.910;6.792;2023-07-16T09:23:42;98801.13;;;23.09;69.17
26807;BME280;14380;49.910;6.792;2023-07-16T09:26:09;98805.31;;;22.34;67.05
26807;BME280;14380;49.910;6.792;2023-07-16T09:28:35;98809.66;;;22.27;68.33
26807;BME280;14380;49.910;6.792;2023-07-16T09:31:07;98809.13;;;23.36;65.98
26807;BME280;14380;49.910;6.792;2023-07-16T09:33:34;98800.59;;;23.14;65.65
26807;BME280;14380;49.910;6.792;2023-07-16T09:36:03;98803.94;;;22.91;65.44
26807;BME280;14380;49.910;6.792;2023-07-16T09:38:31;98813.25;;;23.13;65.40
26807;BME280;14380;49.910;6.792;2023-07-16T09:40:58;98813.38;;;23.03;64.95
26807;BME280;14380;49.910;6.792;2023-07-16T09:43:26;98820.66;;;23.11;63.65
26807;BME280;14380;49.910;6.792;2023-07-16T09:45:52;98803.22;;;23.57;64.75
26807;BME280;14380;49.910;6.792;2023-07-16T09:48:21;98806.59;;;23.59;63.29
26807;BME280;14380;49.910;6.792;2023-07-16T09:50:50;98814.88;;;23.82;62.02
26807;BME280;14380;49.910;6.792;2023-07-16T09:53:19;98813.50;;;23.53;62.18
26807;BME280;14380;49.910;6.792;2023-07-16T09:55:46;98811.66;;;23.87;62.98
26807;BME280;14380;49.910;6.792;2023-07-16T09:58:16;98801.81;;;24.35;60.52
26807;BME280;14380;49.910;6.792;2023-07-16T10:00:45;98807.13;;;24.60;60.86
26807;BME280;14380;49.910;6.792;2023-07-16T10:03:14;98807.88;;;24.86;61.08
26807;BME280;14380;49.910;6.792;2023-07-16T10:05:43;98803.72;;;24.18;59.65
26807;BME280;14380;49.910;6.792;2023-07-16T10:08:17;98825.63;;;23.57;60.80
26807;BME280;14380;49.910;6.792;2023-07-16T10:10:46;98813.34;;;23.80;60.92
26807;BME280;14380;49.910;6.792;2023-07-16T10:13:14;98808.81;;;24.61;59.75
26807;BME280;14380;49.910;6.792;2023-07-16T10:15:50;98805.91;;;24.71;59.31
26807;BME280;14380;49.910;6.792;2023-07-16T10:18:23;98815.31;;;24.84;61.83
26807;BME280;14380;49.910;6.792;2023-07-16T10:20:52;98809.06;;;25.69;59.83
26807;BME280;14380;49.910;6.792;2023-07-16T10:23:19;98806.47;;;26.00;58.71
26807;BME280;14380;49.910;6.792;2023-07-16T10:25:58;98809.34;;;24.97;58.16
26807;BME280;14380;49.910;6.792;2023-07-16T10:28:25;98806.44;;;24.67;58.14
26807;BME280;14380;49.910;6.792;2023-07-16T10:30:51;98815.66;;;24.32;59.19
26807;BME280;14380;49.910;6.792;2023-07-16T10:33:18;98809.03;;;24.43;58.02
26807;BME280;14380;49.910;6.792;2023-07-16T10:35:45;98810.47;;;25.11;58.91
26807;BME280;14380;49.910;6.792;2023-07-16T10:38:13;98819.41;;;23.73;58.56
26807;BME280;14380;49.910;6.792;2023-07-16T10:40:41;98812.44;;;24.29;57.96
26807;BME280;14380;49.910;6.792;2023-07-16T10:43:08;98809.56;;;24.47;60.26
26807;BME280;14380;49.910;6.792;2023-07-16T10:45:35;98808.03;;;24.36;59.27
26807;BME280;14380;49.910;6.792;2023-07-16T10:48:01;98814.53;;;24.67;59.83
26807;BME280;14380;49.910;6.792;2023-07-16T10:50:28;98811.13;;;23.91;59.20
26807;BME280;14380;49.910;6.792;2023-07-16T10:52:56;98815.88;;;24.14;59.47
26807;BME280;14380;49.910;6.792;2023-07-16T10:55:26;98803.53;;;24.20;58.14
26807;BME280;14380;49.910;6.792;2023-07-16T10:57:54;98806.78;;;23.99;58.19
26807;BME280;14380;49.910;6.792;2023-07-16T11:00:22;98812.59;;;24.44;58.70
26807;BME280;14380;49.910;6.792;2023-07-16T11:02:49;98803.28;;;24.55;58.70
26807;BME280;14380;49.910;6.792;2023-07-16T11:05:17;98798.56;;;25.20;57.31
26807;BME280;14380;49.910;6.792;2023-07-16T11:07:44;98801.59;;;25.25;57.51
26807;BME280;14380;49.910;6.792;2023-07-16T11:10:12;98813.56;;;24.51;56.82
26807;BME280;14380;49.910;6.792;2023-07-16T11:12:41;98803.34;;;24.86;57.29
26807;BME280;14380;49.910;6.792;2023-07-16T11:15:09;98802.53;;;25.09;56.41
26807;BME280;14380;49.910;6.792;2023-07-16T11:17:37;98803.09;;;25.97;56.53
26807;BME280;14380;49.910;6.792;2023-07-16T11:20:08;98785.44;;;25.63;56.56
26807;BME280;14380;49.910;6.792;2023-07-16T11:22:37;98800.25;;;25.21;56.07
26807;BME280;14380;49.910;6.792;2023-07-16T11:25:11;98796.41;;;25.70;56.82
26807;BME280;14380;49.910;6.792;2023-07-16T11:27:41;98800.06;;;25.77;55.40
26807;BME280;14380;49.910;6.792;2023-07-16T11:30:09;98800.09;;;25.54;55.48
26807;BME280;14380;49.910;6.792;2023-07-16T11:32:41;98801.28;;;25.51;55.59
26807;BME280;14380;49.910;6.792;2023-07-16T11:35:12;98798.09;;;25.48;56.48
26807;BME280;14380;49.910;6.792;2023-07-16T11:37:41;98792.41;;;26.19;54.17
26807;BME280;14380;49.910;6.792;2023-07-16T11:40:10;98795.59;;;26.23;53.49
26807;BME280;14380;49.910;6.792;2023-07-16T11:42:38;98791.06;;;26.00;54.14
26807;BME280;14380;49.910;6.792;2023-07-16T11:45:16;98786.63;;;25.46;54.62
26807;BME280;14380;49.910;6.792;2023-07-16T11:47:44;98788.06;;;25.25;55.51
26807;BME280;14380;49.910;6.792;2023-07-16T11:50:11;98797.41;;;25.22;55.96
26807;BME280;14380;49.910;6.792;2023-07-16T11:52:39;98782.25;;;24.82;55.78
26807;BME280;14380;49.910;6.792;2023-07-16T11:55:06;98790.28;;;25.53;56.53
26807;BME280;14380;49.910;6.792;2023-07-16T11:57:33;98793.66;;;25.55;55.81
26807;BME280;14380;49.910;6.792;2023-07-16T12:00:00;98786.28;;;25.41;54.62
26807;BME280;14380;49.910;6.792;2023-07-16T12:02:29;98797.16;;;25.79;55.66
26807;BME280;14380;49.910;6.792;2023-07-16T12:04:56;98794.41;;;25.64;54.83
26807;BME280;14380;49.910;6.792;2023-07-16T12:07:30;98781.88;;;25.86;54.75
26807;BME280;14380;49.910;6.792;2023-07-16T12:09:58;98779.63;;;26.28;53.89
26807;BME280;14380;49.910;6.792;2023-07-16T12:12:24;98780.50;;;25.90;55.49
26807;BME280;14380;49.910;6.792;2023-07-16T12:14:51;98788.59;;;25.29;55.23
26807;BME280;14380;49.910;6.792;2023-07-16T12:17:18;98778.03;;;26.49;53.25
26807;BME280;14380;49.910;6.792;2023-07-16T12:19:46;98793.53;;;26.85;55.18
26807;BME280;14380;49.910;6.792;2023-07-16T12:22:14;98775.22;;;27.24;54.23
26807;BME280;14380;49.910;6.792;2023-07-16T12:24:42;98789.72;;;26.64;52.57
26807;BME280;14380;49.910;6.792;2023-07-16T12:27:09;98789.16;;;25.86;53.60
26807;BME280;14380;49.910;6.792;2023-07-16T12:29:36;98784.41;;;26.41;52.98
26807;BME280;14380;49.910;6.792;2023-07-16T12:32:03;98785.50;;;26.32;53.54
26807;BME280;14380;49.910;6.792;2023-07-16T12:34:30;98777.28;;;25.72;53.85
26807;BME280;14380;49.910;6.792;2023-07-16T12:36:59;98777.78;;;25.52;54.51
26807;BME280;14380;49.910;6.792;2023-07-16T12:39:26;98782.09;;;25.61;52.89
26807;BME280;14380;49.910;6.792;2023-07-16T12:41:53;98776.69;;;25.61;53.79
26807;BME280;14380;49.910;6.792;2023-07-16T12:44:20;98778.44;;;25.77;53.87
26807;BME280;14380;49.910;6.792;2023-07-16T12:46:47;98789.84;;;26.03;57.11
26807;BME280;14380;49.910;6.792;2023-07-16T12:49:14;98791.63;;;26.10;53.90
26807;BME280;14380;49.910;6.792;2023-07-16T12:51:40;98787.13;;;26.26;53.92
26807;BME280;14380;49.910;6.792;2023-07-16T12:54:08;98787.38;;;25.31;53.44
26807;BME280;14380;49.910;6.792;2023-07-16T12:56:35;98785.72;;;26.07;55.47
26807;BME280;14380;49.910;6.792;2023-07-16T12:59:02;98778.38;;;26.76;52.99